Terminal Aerodrome Forecast
Issued by NWS Knoxville/Tri Cities, TN

Home | Current Version | Previous Version | Text Only | Print | Product List | Glossary On
Versions: 1 2 3 4 5 6 7 8 9 10 11 12 13 14 15 16 17 18 19 20 21 22 23 24 25 26 27 28 29
000
FTUS44 KMRX 262322
TAFTRI
TAF
KTRI 262322Z 2700/2724 29011G19KT P6SM VCSH SCT025 OVC060
      TEMPO 2700/2702 5SM -SHRA BKN025 OVC060
     FM270200 30008KT 4SM -SHRA BR SCT015 OVC025
     FM270430 31007KT 3SM -SHRA BR OVC015
     FM271400 31008KT P6SM BKN025
     FM271700 28009KT P6SM BKN040=

USA.gov is the U.S. government's official web portal to all federal, state and local government web resources and services.